createdAt,value
2022-12-25T00:01:27.280Z,7.35
2022-12-25T00:03:58.599Z,9.27
2022-12-25T00:06:29.151Z,4.63
2022-12-25T00:08:57.589Z,4.18
2022-12-25T00:11:31.727Z,3.50
2022-12-25T00:14:17.531Z,3.40
2022-12-25T00:16:46.142Z,3.72
2022-12-25T00:19:14.601Z,3.38
2022-12-25T00:21:42.671Z,3.08
2022-12-25T00:24:11.185Z,3.40
2022-12-25T00:26:39.669Z,3.25
2022-12-25T00:29:13.159Z,3.40
2022-12-25T00:31:41.654Z,2.95
2022-12-25T00:34:10.315Z,3.00
2022-12-25T00:36:42.305Z,2.65
2022-12-25T00:39:21.525Z,3.10
2022-12-25T00:42:07.907Z,3.67
2022-12-25T00:44:37.926Z,2.90
2022-12-25T00:47:06.565Z,3.13
2022-12-25T00:49:35.391Z,2.90
2022-12-25T00:52:04.709Z,2.90
2022-12-25T00:54:35.957Z,2.97
2022-12-25T00:57:06.063Z,2.92
2022-12-25T00:59:35.622Z,2.58
2022-12-25T01:02:19.289Z,2.50
2022-12-25T01:04:48.094Z,2.83
2022-12-25T01:07:17.891Z,3.00
2022-12-25T01:10:04.186Z,2.30
2022-12-25T01:12:32.990Z,2.55
2022-12-25T01:15:01.618Z,2.35
2022-12-25T01:17:31.100Z,2.45
2022-12-25T01:19:59.476Z,2.00
2022-12-25T01:22:27.582Z,2.20
2022-12-25T01:24:56.049Z,2.17
2022-12-25T01:27:25.892Z,2.78
2022-12-25T01:29:54.495Z,2.30
2022-12-25T01:32:23.047Z,2.57
2022-12-25T01:34:56.166Z,2.08
2022-12-25T01:37:25.202Z,2.30
2022-12-25T01:39:53.840Z,2.30
2022-12-25T01:42:26.870Z,2.28
2022-12-25T01:45:33.124Z,2.23
2022-12-25T01:48:04.176Z,2.13
2022-12-25T01:50:34.489Z,2.20
2022-12-25T01:53:03.296Z,2.13
2022-12-25T01:55:32.275Z,2.25
2022-12-25T01:58:02.833Z,2.23
2022-12-25T02:00:31.715Z,2.10
2022-12-25T02:03:00.825Z,2.20
2022-12-25T02:05:31.636Z,1.95
2022-12-25T02:08:07.703Z,2.20
2022-12-25T02:10:38.934Z,2.45
2022-12-25T02:13:08.061Z,2.00
2022-12-25T02:15:44.653Z,2.17
2022-12-25T02:18:20.193Z,2.15
2022-12-25T02:21:09.930Z,2.08
2022-12-25T02:23:50.964Z,1.80
2022-12-25T02:26:49.749Z,1.92
2022-12-25T02:29:24.445Z,1.88
2022-12-25T02:32:00.417Z,2.20
2022-12-25T02:34:35.299Z,1.80
2022-12-25T02:37:08.860Z,1.80
2022-12-25T02:40:00.844Z,2.08
2022-12-25T02:43:01.076Z,1.90
2022-12-25T02:45:53.438Z,1.90
2022-12-25T02:48:41.948Z,2.10
2022-12-25T02:51:32.534Z,1.90
2022-12-25T02:54:21.992Z,2.22
2022-12-25T02:57:08.955Z,1.92
2022-12-25T02:59:57.422Z,1.80
2022-12-25T03:02:48.488Z,2.10
2022-12-25T03:05:38.694Z,2.20
2022-12-25T03:08:11.460Z,1.98
2022-12-25T03:11:01.452Z,1.98
2022-12-25T03:13:34.992Z,1.80
2022-12-25T03:16:24.831Z,2.20
2022-12-25T03:18:55.417Z,2.00
2022-12-25T03:21:43.008Z,1.58
2022-12-25T03:24:28.883Z,1.80
2022-12-25T03:26:58.200Z,1.80
2022-12-25T03:29:45.683Z,1.98
2022-12-25T03:32:23.700Z,2.05
2022-12-25T03:35:23.542Z,1.70
2022-12-25T03:38:29.038Z,1.90
2022-12-25T03:41:26.071Z,2.10
2022-12-25T03:44:14.501Z,2.15
2022-12-25T03:47:05.949Z,2.10
2022-12-25T03:49:58.508Z,2.10
2022-12-25T03:52:47.329Z,2.13
2022-12-25T03:55:36.223Z,1.92
2022-12-25T03:58:22.153Z,2.00
2022-12-25T04:01:08.038Z,2.20
2022-12-25T04:03:54.358Z,2.42
2022-12-25T04:06:40.233Z,2.17
2022-12-25T04:09:27.310Z,1.77
2022-12-25T04:12:13.359Z,1.95
2022-12-25T04:14:59.344Z,1.90
2022-12-25T04:17:45.229Z,1.75
2022-12-25T04:20:31.680Z,2.20
2022-12-25T04:23:17.813Z,1.90
2022-12-25T04:26:04.915Z,1.95
2022-12-25T04:28:50.894Z,1.73
2022-12-25T04:31:37.013Z,1.70
2022-12-25T04:34:22.773Z,1.92
2022-12-25T04:36:51.216Z,1.92
2022-12-25T04:39:19.642Z,1.90
2022-12-25T04:41:49.360Z,1.67
2022-12-25T04:44:18.030Z,1.83
2022-12-25T04:46:46.693Z,1.90
2022-12-25T04:49:15.361Z,2.20
2022-12-25T04:51:43.715Z,1.90
2022-12-25T04:54:12.236Z,1.88
2022-12-25T04:56:45.610Z,2.00
2022-12-25T04:59:15.567Z,2.05
2022-12-25T05:01:44.557Z,1.80
2022-12-25T05:04:13.150Z,1.65
2022-12-25T05:06:41.677Z,2.42
2022-12-25T05:09:10.312Z,2.20
2022-12-25T05:11:38.807Z,2.05
2022-12-25T05:14:07.328Z,1.73
2022-12-25T05:16:37.264Z,1.70
2022-12-25T05:19:05.888Z,2.07
2022-12-25T05:21:34.457Z,2.10
2022-12-25T05:24:02.840Z,2.17
2022-12-25T05:26:31.232Z,1.90
2022-12-25T05:29:01.114Z,1.90
2022-12-25T05:31:29.640Z,2.07
2022-12-25T05:33:59.333Z,2.08
2022-12-25T05:36:27.950Z,2.20
2022-12-25T05:38:56.316Z,2.10
2022-12-25T05:41:27.877Z,2.05
2022-12-25T05:44:00.816Z,1.80
2022-12-25T05:46:29.228Z,1.85
2022-12-25T05:48:59.065Z,1.90
2022-12-25T05:51:27.658Z,2.00
2022-12-25T05:53:56.122Z,2.63
2022-12-25T05:56:24.592Z,1.90
2022-12-25T05:58:53.191Z,2.28
2022-12-25T06:01:24.002Z,2.15
2022-12-25T06:03:52.827Z,2.10
2022-12-25T06:06:22.577Z,1.80
2022-12-25T06:08:50.962Z,1.90
2022-12-25T06:11:19.369Z,2.00
2022-12-25T06:13:50.818Z,2.00
2022-12-25T06:16:19.544Z,1.88
2022-12-25T06:18:53.090Z,2.00
2022-12-25T06:21:22.898Z,1.90
2022-12-25T06:23:51.584Z,2.10
2022-12-25T06:26:21.131Z,2.00
2022-12-25T06:28:49.769Z,1.83
2022-12-25T06:31:20.395Z,1.85
2022-12-25T06:33:49.192Z,1.77
2022-12-25T06:36:19.781Z,1.92
2022-12-25T06:38:50.276Z,1.95
2022-12-25T06:41:20.239Z,2.28
2022-12-25T06:43:50.304Z,2.40
2022-12-25T06:46:19.731Z,2.30
2022-12-25T06:48:49.862Z,2.03
2022-12-25T06:51:19.047Z,2.28
2022-12-25T06:53:47.510Z,1.77
2022-12-25T06:56:19.410Z,1.98
2022-12-25T06:58:49.255Z,2.22
2022-12-25T07:01:22.974Z,1.90
2022-12-25T07:03:54.201Z,1.83
2022-12-25T07:06:29.330Z,1.60
2022-12-25T07:08:58.208Z,1.90
2022-12-25T07:11:27.825Z,1.92
2022-12-25T07:13:56.290Z,2.10
2022-12-25T07:16:24.792Z,2.05
2022-12-25T07:18:53.296Z,2.38
2022-12-25T07:21:22.533Z,2.28
2022-12-25T07:23:51.362Z,2.40
2022-12-25T07:26:20.116Z,2.17
2022-12-25T07:28:49.731Z,2.20
2022-12-25T07:31:19.795Z,2.08
2022-12-25T07:33:48.413Z,1.92
2022-12-25T07:36:17.167Z,2.00
2022-12-25T07:38:45.824Z,2.33
2022-12-25T07:41:14.507Z,2.20
2022-12-25T07:43:43.270Z,2.30
2022-12-25T07:46:17.589Z,2.53
2022-12-25T07:48:46.135Z,2.60
2022-12-25T07:51:20.409Z,2.47
2022-12-25T07:53:48.818Z,2.65
2022-12-25T07:56:19.079Z,2.20
2022-12-25T07:58:48.331Z,2.50
2022-12-25T08:01:21.159Z,2.60
2022-12-25T08:03:53.734Z,2.70
2022-12-25T08:06:23.270Z,2.50
2022-12-25T08:08:51.606Z,2.10
2022-12-25T08:11:20.061Z,2.13
2022-12-25T08:13:48.387Z,2.42
2022-12-25T08:16:17.982Z,1.85
2022-12-25T08:18:46.397Z,2.20
2022-12-25T08:21:15.873Z,2.30
2022-12-25T08:23:46.154Z,2.30
2022-12-25T08:26:18.187Z,2.25
2022-12-25T08:28:46.884Z,2.30
2022-12-25T08:31:19.425Z,2.42
2022-12-25T08:33:48.052Z,2.42
2022-12-25T08:36:18.664Z,2.30
2022-12-25T08:39:17.631Z,2.50
2022-12-25T08:42:21.397Z,2.50
2022-12-25T08:48:36.454Z,2.60
2022-12-25T08:51:14.010Z,2.30
2022-12-25T08:53:43.041Z,2.57
2022-12-25T08:56:12.448Z,2.60
2022-12-25T08:58:41.855Z,2.63
2022-12-25T09:01:10.499Z,2.60
2022-12-25T09:03:40.754Z,2.53
2022-12-25T09:06:14.801Z,2.40
2022-12-25T09:08:48.797Z,2.40
2022-12-25T09:11:19.443Z,3.00
2022-12-25T09:13:48.394Z,2.80
2022-12-25T09:16:19.126Z,2.60
2022-12-25T09:18:51.800Z,2.17
2022-12-25T09:21:26.549Z,2.30
2022-12-25T09:27:19.180Z,2.30
2022-12-25T09:30:16.900Z,2.40
2022-12-25T09:33:09.636Z,2.50
2022-12-25T09:36:12.880Z,2.33
2022-12-25T09:38:44.383Z,2.53
2022-12-25T09:41:22.405Z,2.28
2022-12-25T09:44:04.390Z,2.25
2022-12-25T09:47:37.902Z,1.87
2022-12-25T09:50:13.691Z,1.80
2022-12-25T09:52:50.330Z,1.90
2022-12-25T09:55:51.073Z,1.80
2022-12-25T09:58:19.680Z,1.70
2022-12-25T10:01:00.971Z,2.00
2022-12-25T10:04:01.362Z,1.88
2022-12-25T10:06:36.185Z,1.95
2022-12-25T10:09:20.168Z,1.95
2022-12-25T10:12:06.879Z,1.52
2022-12-25T10:14:43.445Z,1.50
2022-12-25T10:17:47.558Z,2.00
2022-12-25T10:20:23.805Z,1.90
2022-12-25T10:22:55.467Z,1.80
2022-12-25T10:25:26.615Z,2.20
2022-12-25T10:28:00.326Z,2.90
2022-12-25T10:30:31.655Z,2.28
2022-12-25T10:33:00.641Z,2.00
2022-12-25T10:35:32.959Z,2.20
2022-12-25T10:38:04.368Z,2.00
2022-12-25T10:40:55.588Z,1.60
2022-12-25T10:43:30.933Z,1.80
2022-12-25T10:46:00.996Z,1.67
2022-12-25T10:48:55.461Z,1.60
2022-12-25T10:51:32.360Z,1.70
2022-12-25T10:54:01.080Z,1.57
2022-12-25T10:56:31.214Z,1.48
2022-12-25T10:59:06.852Z,1.55
2022-12-25T11:01:35.496Z,1.60
2022-12-25T11:04:04.406Z,1.40
2022-12-25T11:06:34.623Z,1.90
2022-12-25T11:09:04.647Z,1.42
2022-12-25T11:11:34.601Z,1.50
2022-12-25T11:14:03.809Z,1.60
2022-12-25T11:16:35.412Z,1.42
2022-12-25T11:19:04.147Z,1.43
2022-12-25T11:21:34.230Z,1.23
2022-12-25T11:24:04.468Z,1.50
2022-12-25T11:26:47.225Z,1.40
2022-12-25T11:29:31.481Z,1.63
2022-12-25T11:32:01.628Z,1.13
2022-12-25T11:34:33.779Z,1.35
2022-12-25T11:37:03.374Z,1.70
2022-12-25T11:39:33.737Z,1.38
2022-12-25T11:42:06.800Z,1.70
2022-12-25T11:44:44.940Z,1.53
2022-12-25T11:47:27.418Z,1.50
2022-12-25T11:52:50.442Z,1.45
2022-12-25T11:55:23.010Z,1.52
2022-12-25T11:57:58.934Z,1.27
2022-12-25T12:00:29.547Z,1.35
2022-12-25T12:03:01.420Z,1.10
2022-12-25T12:05:38.953Z,1.25
2022-12-25T12:08:08.163Z,1.10
2022-12-25T12:10:55.878Z,1.00
2022-12-25T12:13:45.556Z,1.23
2022-12-25T12:16:17.495Z,1.08
2022-12-25T12:18:51.143Z,1.35
2022-12-25T12:21:29.377Z,1.10
2022-12-25T12:24:05.335Z,1.20
2022-12-25T12:26:38.204Z,1.20
2022-12-25T12:29:20.781Z,1.20
2022-12-25T12:31:51.036Z,0.95
2022-12-25T12:34:24.213Z,1.30
2022-12-25T12:36:55.106Z,1.60
2022-12-25T12:39:26.304Z,1.40
2022-12-25T12:41:54.939Z,0.93
2022-12-25T12:44:33.333Z,1.00
2022-12-25T12:47:07.654Z,1.17
2022-12-25T12:49:36.114Z,1.03
2022-12-25T12:52:07.380Z,0.98
2022-12-25T12:54:52.998Z,0.98
2022-12-25T12:57:29.455Z,1.13
2022-12-25T13:00:08.450Z,1.10
2022-12-25T13:03:06.439Z,1.40
2022-12-25T13:05:46.286Z,0.98
2022-12-25T13:08:29.316Z,1.02
2022-12-25T13:11:12.533Z,1.05
2022-12-25T13:13:44.375Z,1.13
2022-12-25T13:16:28.737Z,1.20
2022-12-25T13:19:00.245Z,1.33
2022-12-25T13:21:30.582Z,1.17
2022-12-25T13:24:02.916Z,1.05
2022-12-25T13:26:31.806Z,1.20
2022-12-25T13:29:00.944Z,1.03
2022-12-25T13:31:32.253Z,0.80
2022-12-25T13:34:04.686Z,1.10
2022-12-25T13:36:40.294Z,1.20
2022-12-25T13:39:10.734Z,1.10
2022-12-25T13:42:02.155Z,2.07
2022-12-25T13:44:38.586Z,2.95
2022-12-25T13:47:20.610Z,1.48
2022-12-25T13:49:49.608Z,1.48
2022-12-25T13:52:21.177Z,1.30
2022-12-25T13:54:57.723Z,1.33
2022-12-25T13:57:30.194Z,1.35
2022-12-25T14:00:02.148Z,1.33
2022-12-25T14:02:40.268Z,1.25
2022-12-25T14:05:25.055Z,1.20
2022-12-25T14:07:54.231Z,1.40
2022-12-25T14:10:24.338Z,1.48
2022-12-25T14:13:01.010Z,1.95
2022-12-25T14:15:31.918Z,1.45
2022-12-25T14:18:02.410Z,1.40
2022-12-25T14:20:35.481Z,1.60
2022-12-25T14:23:04.000Z,1.55
2022-12-25T14:25:35.021Z,2.03
2022-12-25T14:28:09.008Z,2.10
2022-12-25T14:30:37.802Z,1.63
2022-12-25T14:33:13.641Z,1.50
2022-12-25T14:35:41.887Z,1.70
2022-12-25T14:38:18.602Z,2.92
2022-12-25T14:40:47.168Z,3.30
2022-12-25T14:43:31.535Z,3.80
2022-12-25T14:46:06.550Z,6.07
2022-12-25T14:48:36.449Z,3.95
2022-12-25T14:51:07.571Z,3.65
2022-12-25T14:53:42.777Z,3.70
2022-12-25T14:56:13.072Z,2.45
2022-12-25T14:58:58.177Z,2.20
2022-12-25T15:01:37.573Z,1.95
2022-12-25T15:04:23.905Z,1.90
2022-12-25T15:06:59.454Z,2.47
2022-12-25T15:10:18.440Z,2.10
2022-12-25T15:12:52.990Z,2.20
2022-12-25T15:15:21.723Z,1.83
2022-12-25T15:17:53.474Z,2.17
2022-12-25T15:20:26.378Z,2.80
2022-12-25T15:23:21.174Z,2.90
2022-12-25T15:25:48.724Z,2.97
2022-12-25T15:28:19.168Z,2.88
2022-12-25T21:01:07.335Z,6.85
2022-12-25T21:04:16.623Z,3.40
2022-12-25T21:06:50.630Z,12.55
2022-12-25T21:17:31.739Z,3.45
2022-12-25T21:20:00.625Z,3.53
2022-12-25T21:22:30.218Z,6.60
2022-12-25T21:24:58.889Z,3.25
2022-12-25T21:27:27.668Z,3.38
2022-12-25T21:30:15.313Z,6.78
2022-12-25T21:33:04.987Z,2.90
2022-12-25T21:35:33.773Z,4.32
2022-12-25T21:38:02.467Z,2.60
2022-12-25T21:40:31.588Z,1.95
2022-12-25T21:43:02.399Z,2.63
2022-12-25T21:45:41.479Z,2.37
2022-12-25T21:48:13.227Z,2.80
2022-12-25T21:54:12.791Z,8.77
2022-12-25T21:56:45.463Z,2.88
2022-12-25T21:59:23.307Z,22.90
2022-12-25T22:01:53.206Z,15.35
2022-12-25T22:05:09.087Z,20.73
2022-12-25T22:07:39.113Z,4.18
2022-12-25T22:10:13.314Z,2.58
2022-12-25T22:12:59.832Z,2.40
2022-12-25T22:15:58.675Z,2.20
2022-12-25T22:18:46.172Z,18.30
2022-12-25T22:21:20.380Z,18.70
2022-12-25T22:23:56.646Z,14.98
2022-12-25T22:26:25.741Z,4.30
2022-12-25T22:28:54.432Z,3.08
2022-12-25T22:31:23.513Z,20.85
2022-12-25T22:33:52.334Z,21.90
2022-12-25T22:36:22.623Z,11.68
2022-12-25T22:38:57.937Z,3.57
2022-12-25T22:41:31.537Z,2.22
2022-12-25T22:44:18.538Z,2.47
2022-12-25T22:46:47.976Z,7.43
2022-12-25T22:49:17.514Z,3.58
2022-12-25T22:51:51.725Z,4.23
2022-12-25T22:54:24.817Z,11.20
2022-12-25T22:56:54.982Z,2.58
2022-12-25T22:59:27.718Z,2.10
2022-12-25T23:01:57.139Z,2.20
2022-12-25T23:04:26.609Z,5.80
2022-12-25T23:06:55.610Z,4.72
2022-12-25T23:09:42.548Z,3.90
2022-12-25T23:12:31.586Z,2.30
2022-12-25T23:14:59.896Z,2.42
2022-12-25T23:17:46.377Z,7.23
2022-12-25T23:20:39.259Z,15.07
2022-12-25T23:23:37.601Z,4.88
2022-12-25T23:26:15.359Z,2.50
2022-12-25T23:29:17.780Z,2.17
2022-12-25T23:31:56.057Z,2.10
2022-12-25T23:34:24.986Z,2.20
2022-12-25T23:36:53.982Z,1.83
2022-12-25T23:39:23.787Z,2.38
2022-12-25T23:42:01.333Z,2.00
2022-12-25T23:44:30.484Z,2.00
2022-12-25T23:46:59.535Z,2.15
2022-12-25T23:49:30.768Z,2.00
2022-12-25T23:51:59.773Z,2.20
2022-12-25T23:54:30.122Z,2.50
2022-12-25T23:57:07.036Z,2.23
2022-12-25T23:59:41.765Z,2.50
